Hovedside
METAR-TAF:

METAR-TAF

Lufthavner :

Alice Springs, Australia

breddegrad: 23-48S, lengdegrad: 133-53E, høyde over havet: 545 m

Gjeldene værobservasjon

Denne rapporten ble laget for 36 minutter siden, klokken 01:00 UTC
Vind 13 kt fra Nordøst
Temperatur 36°C
Luftfuktighet 21%
Trykk 1011 hPa
Sikt 10 km eller mer

METAR: YBAS 230100Z AUTO 04013KT 9999 // NCD 36/10 Q1011 RF00.0/000.0

Tid: 11:06 (01:36 UTC)

Varsel

Denne rapporten ble laget for 2 timer og 14 minutter siden, klokken 23:22 UTC
Varsel gyldig fra 23. klokken 00 UTC til 23. klokken 24 UTC
Vind 12 kt fra Øst-nordøst
Sikt 10 km eller mer
ingen skyer under 1500 m og ingen bygeskyer
Fra 23. klokken 0900 UTC
Vind 8 kt fra Øst-nordøst
Sikt 10 km eller mer
ingen skyer under 1500 m og ingen bygeskyer
Fra 23. klokken 2300 UTC
Vind 12 kt fra Nordøst
Sikt 10 km eller mer
ingen skyer under 1500 m og ingen bygeskyer

TAF: YBAS 222322Z 2300/2324 06012KT CAVOK FM230900 06008KT CAVOK FM232300 04012KT CAVOK

Værobservasjoner og værvarsel for over 4000 flyplasser (METAR- og TAF-rapporter).

Tilgjengelige stasjoner er representert av de røde og gule prikkene på kartet.

Hold musepekeren over prikken for å se navnet på stasjonen.

Klikk så for å se værobservasjoner og -varsler.

For å forandre kartet kan du klikke på den grønne knappen med svart kryss for å zoome inn, på den grønne knappen med strek for å zoome ut, eller på de grønne pilene for å se tilstøtende kart.


METAR-TAF: